Tropical Cyclones
[Index]
Main Index Home Page Stock Weather Photos Extreme Storms Discussion Storm News and Storm Chasing Reports Tropical Cyclones / Hurricanes / Typhoons Weather Data and Links Wild Fires / Bushfires Weather Observation Techniques Weather Picture Catalogue Tornado Pictures and Reports Stock Video Footage and DVDs for sale
Season 1983-1984 Tropical Cyclone CHLOE Track Map
Season 1983-1984 Summaries: [BoM-AU] [JTWC-AU] [JTWC-SIO] [JTWC-SPAC] [JTWC-SH]
<<- Previous TC | BoM 1983-1984 Season | Next TC ->>

click for intensity scale information  Lat/long Grid: Show Hide

 Date Labels: Show Hide

Bureau of Meteorology Tropical Cyclone Data

Name: CHLOE
Number: 657 / 198384_16

25 Feb 1984 21:00 UTC to 03 Mar 1984 15:00 UTC

    date/time    lat    long    hPa   cat  kts
1984-02-25 21   14.0   123.7   1002                     
1984-02-26 00   14.1   123.5   1002                     
1984-02-26 03   14.3   123.4   1001                     
1984-02-26 06   14.4   123.3    998                     
1984-02-26 09   14.3   123.2    994    1                
1984-02-26 12   14.5   123.2    990    1                
1984-02-26 15   14.7   123.3    985    2                
1984-02-26 18   15.0   123.4    980    2                
1984-02-26 21   15.2   123.5    980    2                
1984-02-27 00   15.4   123.4    980    2                
1984-02-27 03   15.7   123.3    980    2                
1984-02-27 06   16.0   123.3    980    2                
1984-02-27 09   16.2   123.3    980    2                
1984-02-27 12   16.4   123.1    980    2                
1984-02-27 15   16.5   122.8    980    2                
1984-02-27 18   16.8   122.3    980    2                
1984-02-27 21   17.1   121.9    980    2                
1984-02-28 00   17.5   121.4    975    2                
1984-02-28 03   17.8   120.9    975    2                
1984-02-28 06   18.0   120.5    975    2                
1984-02-28 09   18.1   120.3    975    2                
1984-02-28 12   18.2   119.8    975    2                
1984-02-28 15   18.5   119.5    973    2                
1984-02-28 18   18.9   119.0    968    3                
1984-02-28 21   19.3   118.7    960    3                
1984-02-29 00   19.5   118.3    955    4                
1984-02-29 03   19.7   118.1    955    4                
1984-02-29 06   19.9   117.9    955    4                
1984-02-29 09   20.2   117.6    955    4                
1984-02-29 12   20.6   117.4    955    4                
1984-02-29 15   21.0   117.1    958    3                
1984-02-29 18   21.2   116.8    965    3                
1984-02-29 21   21.4   116.5    970    3                
1984-03-01 00   21.8   116.1    975    2                
1984-03-01 03   21.9   115.8    975    2                
1984-03-01 06   22.1   115.5    990    1                
1984-03-01 09   22.4   115.2    990    1                
1984-03-01 12   22.6   114.8    996                     
1984-03-01 15   22.8   114.6    998                     
1984-03-01 18   22.8   114.2    999                     
1984-03-01 21   22.9   113.9   1000                     
1984-03-02 00   23.0   113.8    999                     
1984-03-02 03   23.0   113.8    999                     
1984-03-02 06   22.9   113.8    999                     
1984-03-02 09   22.9   113.8    999                     
1984-03-02 12   22.9   113.8   1000                     
1984-03-02 15   23.0   113.8   1001                     
1984-03-02 18   23.0   113.9   1001                     
1984-03-02 21   23.0   113.9   1001                     
1984-03-03 00   23.0   113.9   1001                     
1984-03-03 03   23.0   113.9   1001                     
1984-03-03 06   23.1   113.9   1001                     
1984-03-03 09   23.2   114.0   1000                     
1984-03-03 12   23.2   114.2   1002                     
1984-03-03 15   23.2   114.7   1002                     
Winds are 10-min average.

Tropical cyclone tracks developed by Michael Bath using data from the Bureau of Meteorology and Google Maps.


[Australian Severe Weather index] [Copyright Notice] [Email Contacts] [Search This Site] [Privacy Policy]
Document: tropical_cyclone_chloe.htm Updated: 30 May 2013